createdAt,value
2022-11-28T00:01:26.554Z,2.37
2022-11-28T00:03:55.527Z,2.80
2022-11-28T00:06:23.071Z,2.80
2022-11-28T00:08:50.816Z,3.10
2022-11-28T00:11:18.517Z,2.47
2022-11-28T00:13:46.394Z,2.53
2022-11-28T00:16:16.231Z,3.37
2022-11-28T00:18:43.755Z,2.87
2022-11-28T00:21:13.697Z,2.50
2022-11-28T00:23:41.334Z,2.57
2022-11-28T00:26:11.030Z,2.73
2022-11-28T00:28:38.696Z,2.63
2022-11-28T00:31:06.281Z,3.10
2022-11-28T00:33:34.438Z,3.87
2022-11-28T00:36:02.965Z,3.17
2022-11-28T00:38:32.222Z,2.27
2022-11-28T00:41:00.450Z,2.87
2022-11-28T00:43:27.899Z,2.73
2022-11-28T00:45:55.411Z,3.00
2022-11-28T00:48:23.210Z,2.80
2022-11-28T00:50:52.057Z,2.70
2022-11-28T00:53:19.833Z,2.50
2022-11-28T00:55:48.584Z,2.60
2022-11-28T00:58:16.042Z,2.50
2022-11-28T01:00:43.558Z,3.00
2022-11-28T01:03:11.200Z,2.30
2022-11-28T01:05:41.207Z,2.87
2022-11-28T01:08:08.670Z,2.97
2022-11-28T01:10:39.525Z,2.53
2022-11-28T01:13:08.392Z,2.63
2022-11-28T01:15:35.861Z,2.30
2022-11-28T01:18:03.615Z,2.27
2022-11-28T01:20:31.144Z,2.20
2022-11-28T01:22:58.591Z,2.87
2022-11-28T01:25:26.260Z,2.00
2022-11-28T01:27:53.696Z,2.17
2022-11-28T01:30:22.471Z,2.10
2022-11-28T01:32:49.927Z,2.13
2022-11-28T01:35:17.599Z,2.03
2022-11-28T01:37:45.045Z,2.00
2022-11-28T01:40:12.882Z,2.30
2022-11-28T01:42:40.438Z,2.20
2022-11-28T01:45:12.804Z,1.90
2022-11-28T01:47:41.958Z,2.13
2022-11-28T01:50:10.822Z,2.07
2022-11-28T01:52:39.304Z,2.13
2022-11-28T01:55:08.018Z,2.10
2022-11-28T01:57:35.797Z,1.93
2022-11-28T02:00:06.557Z,2.30
2022-11-28T02:02:42.929Z,1.97
2022-11-28T02:05:10.871Z,1.90
2022-11-28T02:07:38.800Z,2.17
2022-11-28T02:10:07.492Z,2.10
2022-11-28T02:12:53.638Z,1.63
2022-11-28T02:15:34.761Z,1.80
2022-11-28T02:18:10.141Z,1.87
2022-11-28T02:20:59.242Z,2.20
2022-11-28T02:23:29.960Z,1.90
2022-11-28T02:26:15.306Z,2.30
2022-11-28T02:29:00.068Z,2.20
2022-11-28T02:31:34.768Z,2.00
2022-11-28T02:34:06.822Z,1.63
2022-11-28T02:36:36.031Z,2.23
2022-11-28T02:39:07.266Z,2.10
2022-11-28T02:41:38.470Z,1.90
2022-11-28T02:44:10.857Z,2.20
2022-11-28T02:46:42.080Z,1.80
2022-11-28T02:49:13.700Z,2.07
2022-11-28T02:51:42.959Z,2.10
2022-11-28T02:54:11.850Z,2.33
2022-11-28T02:56:39.280Z,2.30
2022-11-28T02:59:26.129Z,2.27
2022-11-28T03:01:53.811Z,2.33
2022-11-28T03:04:27.991Z,2.57
2022-11-28T03:07:00.958Z,2.47
2022-11-28T03:09:35.987Z,2.57
2022-11-28T03:12:10.903Z,2.33
2022-11-28T03:14:44.612Z,2.77
2022-11-28T03:17:17.809Z,3.23
2022-11-28T03:19:51.079Z,2.60
2022-11-28T03:22:23.492Z,2.33
2022-11-28T03:24:53.228Z,2.43
2022-11-28T03:27:25.058Z,2.87
2022-11-28T03:29:54.774Z,2.97
2022-11-28T03:32:24.766Z,2.70
2022-11-28T03:34:57.466Z,2.60
2022-11-28T03:37:27.581Z,2.57
2022-11-28T03:39:56.411Z,2.67
2022-11-28T03:42:25.119Z,2.73
2022-11-28T03:44:55.477Z,2.33
2022-11-28T03:47:25.413Z,2.80
2022-11-28T03:49:56.359Z,3.53
2022-11-28T03:52:25.111Z,2.70
2022-11-28T03:54:54.105Z,2.40
2022-11-28T03:57:24.065Z,3.07
2022-11-28T03:59:53.104Z,2.87
2022-11-28T04:02:23.372Z,2.80
2022-11-28T04:04:53.524Z,2.93
2022-11-28T04:07:26.019Z,2.77
2022-11-28T04:09:56.814Z,2.43
2022-11-28T04:12:31.120Z,3.00
2022-11-28T04:15:01.750Z,3.10
2022-11-28T04:17:32.510Z,2.60
2022-11-28T04:20:04.818Z,2.70
2022-11-28T04:22:35.002Z,2.73
2022-11-28T04:25:04.699Z,3.00
2022-11-28T04:27:34.164Z,2.77
2022-11-28T04:30:02.536Z,3.17
2022-11-28T04:32:31.078Z,2.60
2022-11-28T04:35:00.473Z,3.00
2022-11-28T04:37:29.164Z,3.30
2022-11-28T04:39:57.971Z,2.97
2022-11-28T04:42:27.348Z,3.20
2022-11-28T04:44:58.267Z,2.90
2022-11-28T04:47:26.425Z,3.27
2022-11-28T04:49:54.763Z,3.50
2022-11-28T04:52:24.716Z,3.23
2022-11-28T04:54:56.298Z,3.90
2022-11-28T04:57:29.636Z,3.70
2022-11-28T04:59:57.501Z,4.00
2022-11-28T05:02:25.856Z,5.07
2022-11-28T05:04:55.580Z,6.30
2022-11-28T05:07:24.189Z,5.53
2022-11-28T05:09:51.876Z,5.37
2022-11-28T05:12:19.394Z,7.70
2022-11-28T05:14:48.194Z,20.77
2022-11-28T05:17:15.860Z,37.37
2022-11-28T05:19:43.399Z,16.37
2022-11-28T05:22:11.089Z,10.07
2022-11-28T05:24:38.678Z,5.40
2022-11-28T05:27:07.299Z,4.60
2022-11-28T05:29:34.747Z,4.07
2022-11-28T05:32:04.054Z,4.00
2022-11-28T05:34:31.986Z,5.50
2022-11-28T05:36:59.414Z,4.37
2022-11-28T05:39:27.083Z,4.97
2022-11-28T05:41:55.551Z,3.87
2022-11-28T05:44:26.853Z,4.40
2022-11-28T05:46:54.857Z,4.23
2022-11-28T05:49:25.397Z,4.87
2022-11-28T05:51:52.822Z,4.47
2022-11-28T05:54:20.565Z,4.80
2022-11-28T05:56:48.007Z,4.23
2022-11-28T05:59:15.452Z,3.87
2022-11-28T06:01:42.945Z,4.40
2022-11-28T06:04:10.513Z,4.57
2022-11-28T06:06:39.604Z,4.17
2022-11-28T06:09:07.342Z,5.07
2022-11-28T06:11:35.134Z,4.90
2022-11-28T06:14:02.958Z,4.70
2022-11-28T06:16:31.042Z,4.40
2022-11-28T06:18:59.299Z,4.90
2022-11-28T06:21:26.905Z,4.30
2022-11-28T06:23:55.769Z,4.27
2022-11-28T06:26:23.912Z,4.30
2022-11-28T06:28:51.630Z,4.70
2022-11-28T06:31:20.502Z,4.17
2022-11-28T06:33:48.227Z,3.87
2022-11-28T06:36:16.847Z,4.40
2022-11-28T06:38:44.448Z,5.80
2022-11-28T06:41:14.215Z,4.17
2022-11-28T06:43:42.012Z,4.90
2022-11-28T06:46:15.710Z,22.37
2022-11-28T06:48:43.595Z,23.17
2022-11-28T06:51:11.901Z,41.90
2022-11-28T06:53:39.481Z,41.40
2022-11-28T06:56:07.341Z,22.00
2022-11-28T06:58:36.401Z,14.40
2022-11-28T07:01:07.400Z,6.77
2022-11-28T07:03:34.998Z,5.77
2022-11-28T07:06:02.595Z,4.63
2022-11-28T07:08:30.854Z,5.10
2022-11-28T07:10:58.629Z,4.77
2022-11-28T07:13:26.070Z,4.53
2022-11-28T07:15:54.848Z,4.50
2022-11-28T07:18:22.352Z,4.77
2022-11-28T07:20:50.538Z,4.53
2022-11-28T07:23:18.037Z,5.20
2022-11-28T07:25:45.450Z,4.90
2022-11-28T07:28:12.918Z,4.57
2022-11-28T07:30:40.353Z,5.20
2022-11-28T07:33:09.335Z,5.07
2022-11-28T07:35:36.750Z,5.17
2022-11-28T07:38:04.311Z,5.30
2022-11-28T07:40:31.750Z,5.67
2022-11-28T07:42:59.168Z,5.00
2022-11-28T07:45:37.063Z,4.70
2022-11-28T07:48:15.522Z,4.90
2022-11-28T07:50:42.926Z,5.37
2022-11-28T07:53:10.385Z,5.50
2022-11-28T07:55:37.836Z,6.30
2022-11-28T07:58:05.520Z,5.33
2022-11-28T08:00:33.509Z,5.37
2022-11-28T08:03:01.056Z,5.13
2022-11-28T08:05:29.849Z,5.67
2022-11-28T08:07:57.321Z,5.00
2022-11-28T08:10:24.814Z,5.47
2022-11-28T08:12:52.441Z,6.20
2022-11-28T08:15:20.221Z,5.90
2022-11-28T08:17:47.690Z,6.33
2022-11-28T08:20:15.117Z,5.67
2022-11-28T08:22:43.986Z,5.50
2022-11-28T08:25:11.431Z,5.90
2022-11-28T08:27:38.848Z,6.17
2022-11-28T08:30:07.265Z,6.17
2022-11-28T08:32:34.739Z,20.10
2022-11-28T08:35:02.193Z,8.03
2022-11-28T08:37:29.980Z,9.00
2022-11-28T08:39:58.762Z,6.07
2022-11-28T08:42:26.198Z,8.67
2022-11-28T08:44:53.631Z,6.70
2022-11-28T08:47:21.041Z,5.23
2022-11-28T08:49:48.457Z,6.60
2022-11-28T08:52:15.908Z,5.40
2022-11-28T08:54:43.592Z,5.57
2022-11-28T08:57:12.587Z,4.67
2022-11-28T08:59:39.997Z,5.00
2022-11-28T09:02:07.428Z,4.90
2022-11-28T09:04:34.842Z,5.07
2022-11-28T09:07:02.311Z,4.87
2022-11-28T09:09:32.778Z,7.13
2022-11-28T09:12:00.452Z,8.30
2022-11-28T09:14:29.255Z,6.20
2022-11-28T09:16:56.828Z,4.97
2022-11-28T09:19:24.621Z,5.20
2022-11-28T09:21:57.548Z,5.17
2022-11-28T09:24:25.385Z,5.70
2022-11-28T09:26:52.824Z,6.03
2022-11-28T09:29:20.274Z,5.27
2022-11-28T09:31:49.046Z,5.13
2022-11-28T09:34:16.551Z,5.57
2022-11-28T09:36:43.991Z,5.17
2022-11-28T09:39:11.422Z,5.40
2022-11-28T09:41:50.907Z,5.50
2022-11-28T09:44:21.875Z,4.73
2022-11-28T09:46:52.243Z,5.47
2022-11-28T09:49:23.111Z,6.03
2022-11-28T09:51:52.740Z,6.20
2022-11-28T09:54:22.030Z,5.10
2022-11-28T09:56:50.974Z,5.27
2022-11-28T09:59:21.565Z,5.77
2022-11-28T10:01:53.818Z,4.97
2022-11-28T10:04:25.177Z,5.23
2022-11-28T10:06:56.616Z,5.63
2022-11-28T10:09:30.002Z,5.30
2022-11-28T10:12:07.545Z,5.30
2022-11-28T10:14:53.988Z,5.10
2022-11-28T10:17:26.002Z,5.33
2022-11-28T10:19:57.005Z,5.50
2022-11-28T10:22:33.169Z,4.77
2022-11-28T10:25:04.099Z,5.67
2022-11-28T10:27:34.774Z,5.13
2022-11-28T10:30:03.971Z,5.13
2022-11-28T10:32:32.720Z,4.87
2022-11-28T10:35:03.102Z,4.80
2022-11-28T10:37:31.814Z,5.47
2022-11-28T10:40:04.074Z,5.37
2022-11-28T10:42:35.441Z,5.00
2022-11-28T10:45:15.880Z,4.97
2022-11-28T10:47:51.121Z,5.10
2022-11-28T10:50:22.674Z,4.93
2022-11-28T10:52:55.549Z,5.20
2022-11-28T10:55:25.143Z,4.53
2022-11-28T10:57:57.424Z,5.60
2022-11-28T11:00:24.886Z,6.40
2022-11-28T11:02:54.791Z,5.10
2022-11-28T11:05:25.716Z,5.43
2022-11-28T11:07:54.162Z,5.57
2022-11-28T11:10:23.850Z,5.10
2022-11-28T11:12:52.066Z,5.03
2022-11-28T11:15:24.390Z,5.40
2022-11-28T11:17:51.933Z,5.20
2022-11-28T11:20:39.854Z,5.40
2022-11-28T11:23:13.818Z,5.53
2022-11-28T11:25:46.891Z,5.40
2022-11-28T11:28:26.805Z,4.83
2022-11-28T11:30:59.314Z,5.83
2022-11-28T11:33:31.217Z,5.73
2022-11-28T11:36:01.273Z,5.63
2022-11-28T11:38:34.789Z,4.77
2022-11-28T11:41:19.838Z,4.63
2022-11-28T11:43:47.294Z,5.77
2022-11-28T11:46:15.561Z,6.00
2022-11-28T11:48:43.725Z,5.37
2022-11-28T11:51:22.253Z,5.03
2022-11-28T11:53:49.975Z,4.83
2022-11-28T11:56:17.600Z,5.40
2022-11-28T11:58:47.665Z,5.13
2022-11-28T12:01:16.339Z,4.73
2022-11-28T12:03:49.561Z,4.83
2022-11-28T12:06:21.345Z,4.50
2022-11-28T12:08:51.159Z,5.57
2022-11-28T12:11:20.913Z,5.03
2022-11-28T12:13:48.366Z,5.17
2022-11-28T12:16:22.647Z,5.10
2022-11-28T12:18:57.363Z,5.70
2022-11-28T12:21:28.818Z,5.27
2022-11-28T12:24:02.530Z,4.97
2022-11-28T12:26:35.215Z,5.43
2022-11-28T12:29:09.535Z,5.77
2022-11-28T12:31:42.576Z,5.80
2022-11-28T12:34:16.929Z,6.57
2022-11-28T12:36:50.632Z,5.80
2022-11-28T12:39:19.094Z,6.10
2022-11-28T12:42:02.678Z,5.80
2022-11-28T12:44:34.653Z,5.63
2022-11-28T12:47:07.175Z,5.40
2022-11-28T12:49:38.801Z,5.40
2022-11-28T12:52:16.818Z,6.10
2022-11-28T12:54:49.977Z,5.60
2022-11-28T12:57:19.601Z,5.50
2022-11-28T12:59:51.534Z,5.50
2022-11-28T13:02:27.698Z,6.73
2022-11-28T13:05:11.935Z,6.30
2022-11-28T13:07:48.170Z,6.43
2022-11-28T13:10:21.723Z,6.40
2022-11-28T13:12:55.579Z,5.90
2022-11-28T13:15:28.891Z,7.20
2022-11-28T13:18:00.001Z,7.23
2022-11-28T13:20:30.351Z,7.30
2022-11-28T13:23:03.197Z,7.53
2022-11-28T13:25:33.097Z,7.70
2022-11-28T13:28:04.023Z,7.37
2022-11-28T13:30:33.516Z,6.57
2022-11-28T13:33:08.148Z,7.43
2022-11-28T13:35:35.998Z,7.10
2022-11-28T13:40:57.282Z,6.63
2022-11-28T13:43:27.574Z,7.70
2022-11-28T13:45:55.471Z,7.60
2022-11-28T13:51:32.124Z,8.23
2022-11-28T13:54:18.833Z,7.87
2022-11-28T13:56:48.979Z,8.60
2022-11-28T13:59:18.222Z,9.03
2022-11-28T14:01:46.741Z,10.20
2022-11-28T14:04:15.399Z,21.43
2022-11-28T14:06:45.471Z,25.33
2022-11-28T14:09:25.366Z,29.80
2022-11-28T14:12:00.094Z,28.30
2022-11-28T14:14:32.849Z,81.03
2022-11-28T14:17:09.746Z,81.80
2022-11-28T14:19:46.113Z,60.43
2022-11-28T14:22:20.279Z,21.90
2022-11-28T14:24:55.123Z,15.37
2022-11-28T14:27:26.101Z,13.30
2022-11-28T14:29:54.937Z,17.47
2022-11-28T14:32:34.979Z,18.40
2022-11-28T14:35:04.967Z,18.70
2022-11-28T14:37:48.503Z,11.97
2022-11-28T14:40:35.343Z,10.63
2022-11-28T14:43:17.963Z,11.73
2022-11-28T14:45:46.834Z,9.43
2022-11-28T14:48:16.219Z,9.57
2022-11-28T14:50:48.000Z,9.23
2022-11-28T14:53:36.081Z,8.07
2022-11-28T14:56:10.777Z,9.17
2022-11-28T14:58:38.837Z,8.80
2022-11-28T15:01:10.233Z,9.30
2022-11-28T15:03:41.569Z,9.30
2022-11-28T15:06:11.556Z,10.97
2022-11-28T15:08:47.457Z,10.17
2022-11-28T15:11:25.801Z,9.57
2022-11-28T15:13:59.695Z,9.50
2022-11-28T15:16:29.684Z,9.17
2022-11-28T15:18:59.879Z,9.60
2022-11-28T15:21:30.098Z,9.23
2022-11-28T15:23:57.846Z,11.03
2022-11-28T15:26:28.209Z,11.90
2022-11-28T15:29:08.903Z,10.43
2022-11-28T15:31:38.520Z,11.93
2022-11-28T15:34:09.085Z,9.83
2022-11-28T15:36:38.166Z,8.73
2022-11-28T15:39:05.858Z,8.83
2022-11-28T15:41:33.434Z,8.10
2022-11-28T15:44:01.132Z,9.50
2022-11-28T15:46:30.963Z,9.23
2022-11-28T15:49:01.357Z,8.73
2022-11-28T15:51:29.853Z,8.80
2022-11-28T15:53:59.274Z,9.10
2022-11-28T15:56:27.238Z,8.23
2022-11-28T15:58:54.967Z,8.43
2022-11-28T16:01:23.272Z,10.60
2022-11-28T16:03:53.760Z,10.53
2022-11-28T16:06:24.088Z,9.23
2022-11-28T16:08:53.211Z,13.03
2022-11-28T16:11:22.776Z,12.90
2022-11-28T16:13:51.329Z,11.13
2022-11-28T16:16:20.145Z,8.67
2022-11-28T16:18:49.362Z,14.63
2022-11-28T16:21:16.945Z,10.77
2022-11-28T16:23:45.758Z,10.50
2022-11-28T16:26:25.727Z,9.97
2022-11-28T16:28:58.022Z,10.67
2022-11-28T16:31:27.226Z,10.17
2022-11-28T16:33:54.993Z,8.97
2022-11-28T16:36:24.221Z,10.23
2022-11-28T16:38:53.433Z,10.67
2022-11-28T16:41:22.578Z,11.90
2022-11-28T16:43:53.298Z,10.10
2022-11-28T16:46:22.711Z,9.93
2022-11-28T16:48:51.145Z,9.53
2022-11-28T16:51:35.461Z,9.50
2022-11-28T16:54:17.865Z,10.57
2022-11-28T16:56:48.191Z,9.30
2022-11-28T16:59:16.315Z,12.13
2022-11-28T17:01:44.790Z,10.70
2022-11-28T17:04:20.177Z,13.30
2022-11-28T17:06:47.769Z,13.20
2022-11-28T17:09:15.382Z,13.47
2022-11-28T17:11:44.287Z,12.20
2022-11-28T17:14:14.038Z,11.50
2022-11-28T17:16:42.634Z,19.50
2022-11-28T17:19:10.616Z,11.73
2022-11-28T17:21:39.751Z,12.97
2022-11-28T17:24:08.533Z,12.27
2022-11-28T17:26:35.947Z,11.00
2022-11-28T17:29:03.411Z,8.70
2022-11-28T17:31:32.333Z,6.63
2022-11-28T17:34:00.083Z,7.40
2022-11-28T17:36:27.565Z,6.27
2022-11-28T17:38:55.231Z,5.77
2022-11-28T17:41:23.292Z,6.27
2022-11-28T17:43:50.987Z,6.60
2022-11-28T17:46:21.398Z,5.97
2022-11-28T17:48:50.418Z,5.80
2022-11-28T17:51:18.202Z,6.10
2022-11-28T17:53:45.637Z,5.40
2022-11-28T17:56:13.366Z,6.07
2022-11-28T17:58:40.962Z,7.90
2022-11-28T18:01:10.504Z,8.73
2022-11-28T18:03:38.018Z,8.97
2022-11-28T18:06:07.336Z,8.53
2022-11-28T18:08:35.162Z,11.80
2022-11-28T18:11:03.313Z,10.17
2022-11-28T18:13:30.756Z,9.40
2022-11-28T18:15:58.274Z,8.83
2022-11-28T18:18:26.057Z,8.07
2022-11-28T18:20:53.563Z,8.37
2022-11-28T18:23:23.239Z,8.23
2022-11-28T18:25:51.304Z,8.53
2022-11-28T18:28:20.348Z,9.37
2022-11-28T18:30:48.817Z,8.47
2022-11-28T18:33:17.298Z,8.87
2022-11-28T18:35:44.786Z,8.20
2022-11-28T18:38:12.604Z,9.33
2022-11-28T18:40:41.608Z,8.70
2022-11-28T18:43:09.063Z,8.67
2022-11-28T18:45:36.955Z,8.83
2022-11-28T18:48:04.563Z,8.90
2022-11-28T18:50:35.125Z,8.07
2022-11-28T18:53:03.053Z,8.07
2022-11-28T18:55:30.480Z,9.03
2022-11-28T18:57:59.811Z,9.10
2022-11-28T19:00:27.731Z,8.57
2022-11-28T19:02:55.402Z,8.17
2022-11-28T19:05:23.758Z,9.37
2022-11-28T19:07:51.368Z,9.97
2022-11-28T19:10:19.018Z,10.53
2022-11-28T19:12:47.047Z,9.40
2022-11-28T19:15:16.364Z,11.27
2022-11-28T19:17:44.046Z,10.07
2022-11-28T19:20:12.032Z,10.77
2022-11-28T19:22:40.086Z,7.07
2022-11-28T19:25:08.401Z,8.60
2022-11-28T19:27:35.856Z,8.30
2022-11-28T19:30:03.474Z,8.67
2022-11-28T19:32:32.258Z,7.10
2022-11-28T19:34:59.727Z,7.53
2022-11-28T19:37:28.425Z,7.83
2022-11-28T19:40:01.028Z,8.70
2022-11-28T19:42:30.057Z,7.40
2022-11-28T19:44:57.833Z,7.27
2022-11-28T19:47:25.386Z,7.00
2022-11-28T19:49:55.083Z,7.23
2022-11-28T19:52:22.847Z,7.47
2022-11-28T19:54:50.993Z,7.03
2022-11-28T19:57:20.575Z,7.27
2022-11-28T19:59:48.662Z,7.70
2022-11-28T20:02:16.169Z,6.93
2022-11-28T20:04:43.659Z,7.90
2022-11-28T20:07:12.439Z,8.20
2022-11-28T20:09:39.900Z,8.37
2022-11-28T20:12:07.697Z,8.60
2022-11-28T20:14:35.761Z,7.60
2022-11-28T20:17:04.337Z,8.47
2022-11-28T20:19:33.572Z,7.83
2022-11-28T20:22:01.215Z,9.43
2022-11-28T20:24:30.476Z,7.70
2022-11-28T20:26:58.033Z,8.40
2022-11-28T20:29:27.820Z,7.40
2022-11-28T20:31:57.030Z,8.23
2022-11-28T20:34:25.484Z,8.33
2022-11-28T20:36:53.536Z,8.63
2022-11-28T20:39:21.442Z,8.37
2022-11-28T20:41:50.325Z,8.63
2022-11-28T20:44:18.223Z,8.03
2022-11-28T20:46:46.324Z,8.63
2022-11-28T20:49:15.022Z,8.47
2022-11-28T20:51:42.703Z,8.93
2022-11-28T20:54:11.917Z,8.13
2022-11-28T20:57:12.905Z,9.27
2022-11-28T20:59:29.013Z,8.07
2022-11-28T21:01:56.456Z,8.70
2022-11-28T21:04:23.973Z,9.50
2022-11-28T21:06:51.510Z,9.30
2022-11-28T21:09:20.312Z,8.53
2022-11-28T21:11:57.988Z,9.00
2022-11-28T21:14:25.847Z,8.43
2022-11-28T21:16:54.824Z,8.47
2022-11-28T21:19:22.415Z,9.23
2022-11-28T21:21:49.936Z,9.03
2022-11-28T21:24:17.395Z,9.63
2022-11-28T21:26:49.695Z,9.97
2022-11-28T21:29:20.274Z,9.40
2022-11-28T21:31:47.769Z,9.23
2022-11-28T21:34:17.596Z,8.17
2022-11-28T21:36:45.274Z,9.27
2022-11-28T21:39:14.228Z,8.97
2022-11-28T21:41:41.661Z,9.37
2022-11-28T21:44:09.475Z,8.87
2022-11-28T21:46:37.006Z,9.13
2022-11-28T21:49:04.446Z,9.20
2022-11-28T21:51:33.995Z,8.97
2022-11-28T21:54:02.283Z,8.17
2022-11-28T21:56:29.764Z,8.73
2022-11-28T21:58:57.744Z,8.50
2022-11-28T22:01:25.531Z,8.27
2022-11-28T22:03:57.702Z,9.00
2022-11-28T22:06:28.267Z,8.27
2022-11-28T22:08:57.152Z,9.17
2022-11-28T22:11:24.593Z,8.63
2022-11-28T22:13:52.711Z,8.43
2022-11-28T22:16:22.146Z,8.43
2022-11-28T22:18:50.280Z,9.43
2022-11-28T22:24:08.356Z,8.80
2022-11-28T22:26:35.866Z,8.73
2022-11-28T22:29:04.344Z,9.00
2022-11-28T22:31:33.099Z,9.13
2022-11-28T22:34:00.803Z,8.53
2022-11-28T22:36:29.031Z,8.87
2022-11-28T22:38:57.200Z,8.63
2022-11-28T22:41:29.313Z,7.70
2022-11-28T22:44:00.333Z,8.43
2022-11-28T22:46:28.539Z,7.87
2022-11-28T22:48:56.331Z,8.27
2022-11-28T22:51:24.580Z,7.70
2022-11-28T22:53:53.726Z,8.47
2022-11-28T22:56:21.221Z,7.90
2022-11-28T22:58:50.348Z,8.27
2022-11-28T23:01:20.273Z,8.17
2022-11-28T23:03:48.808Z,8.10
2022-11-28T23:06:18.059Z,8.20
2022-11-28T23:08:46.539Z,8.57
2022-11-28T23:11:14.932Z,7.60
2022-11-28T23:13:43.180Z,8.97
2022-11-28T23:16:13.174Z,8.00
2022-11-28T23:18:41.042Z,8.13
2022-11-28T23:21:08.565Z,8.37
2022-11-28T23:23:36.666Z,8.43
2022-11-28T23:26:05.495Z,8.27
2022-11-28T23:28:34.105Z,8.37
2022-11-28T23:31:05.209Z,8.37
2022-11-28T23:33:34.321Z,7.87
2022-11-28T23:36:01.784Z,7.80
2022-11-28T23:38:31.366Z,7.77
2022-11-28T23:40:58.766Z,7.90
2022-11-28T23:43:26.295Z,8.07
2022-11-28T23:45:53.779Z,8.10
2022-11-28T23:48:21.284Z,8.43
2022-11-28T23:50:50.039Z,8.43
2022-11-28T23:53:17.488Z,8.07
2022-11-28T23:55:45.037Z,7.97
2022-11-28T23:58:12.470Z,8.27
